Time;durP1;ratioP1;P1;durP2;ratioP2;P2;SDS_P1;SDS_P2;PMS_P1;PMS_P2;Temp;Humidity;BMP_temperature;BMP_pressure;BME280_temperature;BME280_humidity;BME280_pressure;Samples;Min_cycle;Max_cycle;Signal;HPM_P1;HPM_P2
2022/04/16 00:00:06;;;;;;;5.13;4.17;;;;;;;;;;4452876;28;20539;-65
2022/04/16 00:02:17;;;;;;;5.78;4.20;;;;;;;;;;4487177;28;20042;-66
2022/04/16 00:04:28;;;;;;;6.35;4.50;;;;;;;;;;4489281;28;20070;-66
2022/04/16 00:06:38;;;;;;;5.95;4.60;;;;;;;;;;4468922;28;20065;-66
2022/04/16 00:08:49;;;;;;;6.77;4.70;;;;;;;;;;4489887;28;20085;-66
2022/04/16 00:11:00;;;;;;;6.43;4.70;;;;;;;;;;4488636;28;20849;-66
2022/04/16 00:13:11;;;;;;;6.88;5.25;;;;;;;;;;4488277;28;20664;-66
2022/04/16 00:15:21;;;;;;;7.40;4.70;;;;;;;;;;4473428;28;21088;-66
2022/04/16 00:17:32;;;;;;;5.93;4.57;;;;;;;;;;4488396;28;20118;-66
2022/04/16 00:19:43;;;;;;;6.10;4.67;;;;;;;;;;4487650;28;20173;-66
2022/04/16 00:21:53;;;;;;;4.93;3.80;;;;;;;;;;4470585;28;20046;-67
2022/04/16 00:24:04;;;;;;;5.30;4.20;;;;;;;;;;4487121;28;20048;-66
2022/04/16 00:26:14;;;;;;;5.63;4.10;;;;;;;;;;4488691;28;20045;-66
2022/04/16 00:28:27;;;;;;;6.20;4.40;;;;;;;;;;4476555;28;20545;-66
2022/04/16 00:30:39;;;;;;;5.65;4.20;;;;;;;;;;4485931;28;20601;-66
2022/04/16 00:32:51;;;;;;;6.13;4.50;;;;;;;;;;4488435;28;20600;-66
2022/04/16 00:35:02;;;;;;;7.93;4.80;;;;;;;;;;4488497;28;20034;-67
2022/04/16 00:37:13;;;;;;;6.60;4.72;;;;;;;;;;4488565;28;20034;-66
2022/04/16 00:39:25;;;;;;;7.27;5.40;;;;;;;;;;4488692;28;20073;-66
2022/04/16 00:41:35;;;;;;;;;;;;;;;;;;4469127;28;20042;-67
2022/04/16 00:43:46;;;;;;;6.25;5.25;;;;;;;;;;4488117;28;19917;-66
2022/04/16 00:45:56;;;;;;;7.03;5.03;;;;;;;;;;4488730;28;20076;-66
2022/04/16 00:48:07;;;;;;;7.53;5.70;;;;;;;;;;4477800;28;20053;-67
2022/04/16 00:50:18;;;;;;;7.63;5.68;;;;;;;;;;4473688;28;20117;-66
2022/04/16 00:52:28;;;;;;;7.87;5.93;;;;;;;;;;4469310;28;20073;-66
2022/04/16 00:54:39;;;;;;;7.67;5.33;;;;;;;;;;4469787;28;21125;-67
2022/04/16 00:56:49;;;;;;;7.67;5.73;;;;;;;;;;4486609;28;22766;-67
2022/04/16 00:59:01;;;;;;;8.43;5.57;;;;;;;;;;4487008;28;20254;-67
2022/04/16 01:01:11;;;;;;;7.78;5.85;;;;;;;;;;4488479;28;21026;-66
2022/04/16 01:03:22;;;;;;;7.87;5.83;;;;;;;;;;4487893;28;43657;-66
2022/04/16 01:05:32;;;;;;;7.97;5.60;;;;;;;;;;4486016;28;20069;-66
2022/04/16 01:07:53;;;;;;;7.37;5.80;;;;;;;;;;4487615;28;20034;-66
2022/04/16 01:10:04;;;;;;;7.70;5.90;;;;;;;;;;4468850;28;20039;-66
2022/04/16 01:12:14;;;;;;;7.90;6.10;;;;;;;;;;4469403;28;20476;-66
2022/04/16 01:14:25;;;;;;;8.30;6.07;;;;;;;;;;4486426;28;20030;-66
2022/04/16 01:16:35;;;;;;;8.70;6.13;;;;;;;;;;4470500;28;20031;-66
2022/04/16 01:18:46;;;;;;;8.23;6.33;;;;;;;;;;4480071;28;20522;-66
2022/04/16 01:20:56;;;;;;;8.80;6.10;;;;;;;;;;4492074;28;20033;-65
2022/04/16 01:23:07;;;;;;;8.13;6.10;;;;;;;;;;4473251;28;27851;-66
2022/04/16 01:25:18;;;;;;;9.60;6.63;;;;;;;;;;4489523;28;20040;-66
2022/04/16 01:27:29;;;;;;;8.35;6.13;;;;;;;;;;4473228;28;20121;-66
2022/04/16 01:29:41;;;;;;;8.27;5.90;;;;;;;;;;4490936;28;20124;-66
2022/04/16 01:31:52;;;;;;;8.55;6.40;;;;;;;;;;4489927;28;20037;-67
2022/04/16 01:34:03;;;;;;;7.35;5.95;;;;;;;;;;4489741;28;20038;-66
2022/04/16 01:36:14;;;;;;;8.17;5.90;;;;;;;;;;4481197;28;20035;-66
2022/04/16 01:38:25;;;;;;;8.00;6.20;;;;;;;;;;4475216;28;34677;-66
2022/04/16 01:40:35;;;;;;;;;;;;;;;;;;4489527;28;20177;-66
2022/04/16 01:42:46;;;;;;;8.82;6.07;;;;;;;;;;4459447;28;20366;-66
2022/04/16 01:44:57;;;;;;;8.47;6.13;;;;;;;;;;4490097;28;20356;-66
2022/04/16 01:47:10;;;;;;;;;;;;;;;;;;4491715;28;20038;-65
2022/04/16 01:49:21;;;;;;;8.60;6.80;;;;;;;;;;4476979;28;19918;-66
2022/04/16 01:51:31;;;;;;;9.33;6.67;;;;;;;;;;4458463;28;20586;-66
2022/04/16 01:53:42;;;;;;;9.13;6.10;;;;;;;;;;4490217;28;20973;-66
2022/04/16 01:55:52;;;;;;;9.57;6.60;;;;;;;;;;4489836;28;20041;-66
2022/04/16 01:58:06;;;;;;;8.43;6.40;;;;;;;;;;4475570;28;20034;-66
2022/04/16 02:00:19;;;;;;;7.93;6.38;;;;;;;;;;4469895;28;20050;-65
2022/04/16 02:02:29;;;;;;;8.95;6.22;;;;;;;;;;4490045;28;20586;-66
2022/04/16 02:04:40;;;;;;;9.70;7.00;;;;;;;;;;4488018;28;20039;-66
2022/04/16 02:06:50;;;;;;;8.77;6.10;;;;;;;;;;4489497;28;20077;-65
2022/04/16 02:09:01;;;;;;;8.40;5.97;;;;;;;;;;4471082;28;36597;-66
2022/04/16 02:11:11;;;;;;;8.20;6.17;;;;;;;;;;4489153;28;20038;-66
2022/04/16 02:13:22;;;;;;;9.03;6.10;;;;;;;;;;4475664;28;20106;-66
2022/04/16 02:15:32;;;;;;;8.80;6.30;;;;;;;;;;4478651;28;20061;-66
2022/04/16 02:17:43;;;;;;;8.80;6.40;;;;;;;;;;4489397;28;20918;-66
2022/04/16 02:19:53;;;;;;;8.17;6.30;;;;;;;;;;4480841;28;20046;-65
2022/04/16 02:22:04;;;;;;;8.53;6.00;;;;;;;;;;4471769;28;23291;-66
2022/04/16 02:24:17;;;;;;;8.05;5.93;;;;;;;;;;4489957;28;20648;-66
2022/04/16 02:26:27;;;;;;;8.35;6.53;;;;;;;;;;4474813;28;20048;-65
2022/04/16 02:28:37;;;;;;;7.80;5.90;;;;;;;;;;4487173;28;43674;-65
2022/04/16 02:30:49;;;;;;;8.60;5.87;;;;;;;;;;4479431;28;20039;-66
2022/04/16 02:33:02;;;;;;;8.40;6.53;;;;;;;;;;4489015;28;21192;-66
2022/04/16 02:35:14;;;;;;;7.78;5.65;;;;;;;;;;4489081;28;20046;-66
2022/04/16 02:37:24;;;;;;;7.38;5.90;;;;;;;;;;4470192;28;20034;-65
2022/04/16 02:39:35;;;;;;;9.37;6.37;;;;;;;;;;4490049;28;20110;-66
2022/04/16 02:41:45;;;;;;;8.47;5.63;;;;;;;;;;4472550;28;20072;-65
2022/04/16 02:43:57;;;;;;;9.17;6.43;;;;;;;;;;4469262;28;42594;-65
2022/04/16 02:48:37;;;;;;;9.18;6.18;;;;;;;;;;4489633;28;20475;-66
2022/04/16 02:50:48;;;;;;;8.60;5.93;;;;;;;;;;4490007;28;20026;-65
2022/04/16 02:52:59;;;;;;;7.87;5.50;;;;;;;;;;4489832;28;20041;-65
2022/04/16 02:55:09;;;;;;;8.43;5.68;;;;;;;;;;4487791;28;20081;-65
2022/04/16 02:57:20;;;;;;;8.20;5.67;;;;;;;;;;4489052;28;20394;-66
2022/04/16 02:59:35;;;;;;;7.23;4.97;;;;;;;;;;4489021;28;30517;-66
2022/04/16 03:01:45;;;;;;;7.28;5.10;;;;;;;;;;4488617;28;20112;-65
2022/04/16 03:03:56;;;;;;;8.53;5.43;;;;;;;;;;4472377;28;20081;-65
2022/04/16 03:06:06;;;;;;;6.20;4.40;;;;;;;;;;4489264;28;20049;-66
2022/04/16 03:08:17;;;;;;;7.10;5.03;;;;;;;;;;4489447;28;20037;-65
2022/04/16 03:10:27;;;;;;;7.07;4.90;;;;;;;;;;4487537;28;40747;-65
2022/04/16 03:12:47;;;;;;;6.70;4.40;;;;;;;;;;4469780;28;20046;-66
2022/04/16 03:17:32;;;;;;;6.25;4.13;;;;;;;;;;4474988;28;20604;-66
2022/04/16 03:19:45;;;;;;;6.97;4.47;;;;;;;;;;4490293;28;20525;-65
2022/04/16 03:21:55;;;;;;;6.20;4.40;;;;;;;;;;4488977;28;20030;-65
2022/04/16 03:24:05;;;;;;;6.17;4.13;;;;;;;;;;4487072;28;46055;-65
2022/04/16 03:26:16;;;;;;;6.53;4.30;;;;;;;;;;4489491;28;20026;-65
2022/04/16 03:28:27;;;;;;;5.67;4.10;;;;;;;;;;4489073;28;20042;-65
2022/04/16 03:30:39;;;;;;;5.93;4.10;;;;;;;;;;4488591;28;20056;-65
2022/04/16 03:32:50;;;;;;;6.60;4.07;;;;;;;;;;4488326;28;20040;-65
2022/04/16 03:35:01;;;;;;;;;;;;;;;;;;4489471;28;20038;-65
2022/04/16 03:37:11;;;;;;;5.88;3.88;;;;;;;;;;4469583;28;19918;-65
2022/04/16 03:39:22;;;;;;;6.67;4.37;;;;;;;;;;4486232;28;32007;-65
2022/04/16 03:41:32;;;;;;;5.37;3.80;;;;;;;;;;4489398;28;20564;-65
2022/04/16 03:43:42;;;;;;;6.07;4.00;;;;;;;;;;4486646;28;21167;-65
2022/04/16 03:45:53;;;;;;;6.73;4.60;;;;;;;;;;4455045;28;20075;-65
2022/04/16 03:48:05;;;;;;;5.90;4.23;;;;;;;;;;4486950;28;38134;-65
2022/04/16 03:50:17;;;;;;;7.20;4.10;;;;;;;;;;4486910;28;20144;-65
2022/04/16 03:52:27;;;;;;;5.53;3.63;;;;;;;;;;4486830;28;20113;-65
2022/04/16 04:02:04;;;;;;;6.35;3.95;;;;;;;;;;4486079;28;20026;-66
2022/04/16 04:04:15;;;;;;;5.73;3.67;;;;;;;;;;4487590;28;25300;-65
2022/04/16 04:06:25;;;;;;;6.87;3.83;;;;;;;;;;4487070;28;20486;-65
2022/04/16 04:08:36;;;;;;;6.30;4.13;;;;;;;;;;4487085;28;20061;-65
2022/04/16 04:10:47;;;;;;;6.47;3.90;;;;;;;;;;4486492;28;20076;-65
2022/04/16 04:12:57;;;;;;;5.93;3.70;;;;;;;;;;4488394;28;20162;-65
2022/04/16 04:15:08;;;;;;;5.97;3.87;;;;;;;;;;4488020;28;20038;-65
2022/04/16 04:17:18;;;;;;;5.53;3.75;;;;;;;;;;4487397;28;20042;-65
2022/04/16 04:19:29;;;;;;;4.60;3.40;;;;;;;;;;4488405;28;20042;-65
2022/04/16 04:21:39;;;;;;;5.57;3.80;;;;;;;;;;4470987;28;29230;-65
2022/04/16 04:23:50;;;;;;;4.63;3.40;;;;;;;;;;4478455;28;20384;-65
2022/04/16 04:26:00;;;;;;;5.30;3.40;;;;;;;;;;4488187;28;20117;-65
2022/04/16 04:28:11;;;;;;;6.67;3.70;;;;;;;;;;4487045;28;23810;-66
2022/04/16 04:30:21;;;;;;;5.30;3.75;;;;;;;;;;4487008;28;20038;-65
2022/04/16 04:32:32;;;;;;;6.27;3.60;;;;;;;;;;4487189;28;20033;-65
2022/04/16 04:34:42;;;;;;;5.83;3.60;;;;;;;;;;4489475;28;20038;-66
2022/04/16 04:36:53;;;;;;;5.60;3.63;;;;;;;;;;4477752;28;20125;-65
2022/04/16 04:39:03;;;;;;;6.77;4.10;;;;;;;;;;4487098;28;20558;-65
2022/04/16 04:41:14;;;;;;;6.70;3.90;;;;;;;;;;4487585;28;20117;-66
2022/04/16 04:43:24;;;;;;;7.17;4.07;;;;;;;;;;4485592;28;39317;-65
2022/04/16 04:45:35;;;;;;;5.93;3.93;;;;;;;;;;4487384;28;20045;-66
2022/04/16 04:47:45;;;;;;;6.53;3.93;;;;;;;;;;4484917;28;20120;-66
2022/04/16 04:49:56;;;;;;;6.23;4.20;;;;;;;;;;4469642;28;20063;-65
2022/04/16 04:52:06;;;;;;;6.70;4.20;;;;;;;;;;4461238;28;29013;-66
2022/04/16 04:54:17;;;;;;;6.53;4.20;;;;;;;;;;4488969;28;23963;-65
2022/04/16 04:56:28;;;;;;;6.27;4.10;;;;;;;;;;4489458;28;20371;-65
2022/04/16 04:58:39;;;;;;;6.35;3.80;;;;;;;;;;4490168;28;20939;-65
2022/04/16 05:00:49;;;;;;;6.10;4.27;;;;;;;;;;4488679;28;20488;-66
2022/04/16 05:02:59;;;;;;;6.03;4.10;;;;;;;;;;4489768;28;20034;-65
2022/04/16 05:05:11;;;;;;;6.00;4.33;;;;;;;;;;4489293;28;20479;-65
2022/04/16 05:07:21;;;;;;;5.93;3.90;;;;;;;;;;4463722;28;20586;-65
2022/04/16 05:09:31;;;;;;;6.93;4.23;;;;;;;;;;4487366;28;20089;-65
2022/04/16 05:11:42;;;;;;;7.73;4.93;;;;;;;;;;4473189;28;22054;-65
2022/04/16 05:13:52;;;;;;;6.93;4.53;;;;;;;;;;4488319;28;20546;-65
2022/04/16 05:16:03;;;;;;;6.70;4.37;;;;;;;;;;4471279;28;20034;-65
2022/04/16 05:18:13;;;;;;;6.77;4.57;;;;;;;;;;4489224;28;20050;-65
2022/04/16 05:20:24;;;;;;;7.53;5.20;;;;;;;;;;4469114;28;20051;-65
2022/04/16 05:22:34;;;;;;;6.93;4.90;;;;;;;;;;4487945;28;20030;-66
2022/04/16 05:24:45;;;;;;;7.67;4.50;;;;;;;;;;4474469;28;20038;-65
2022/04/16 05:26:56;;;;;;;7.50;4.70;;;;;;;;;;4472681;28;20397;-65
2022/04/16 05:29:07;;;;;;;8.73;5.60;;;;;;;;;;4488223;28;20696;-66
2022/04/16 05:31:20;;;;;;;8.30;5.50;;;;;;;;;;4488315;28;20084;-66
2022/04/16 05:36:13;;;;;;;10.77;5.22;;;;;;;;;;4453923;28;20090;-66
2022/04/16 05:38:24;;;;;;;7.07;5.03;;;;;;;;;;4489572;28;32000;-65
2022/04/16 05:40:34;;;;;;;7.80;5.60;;;;;;;;;;4491025;28;20042;-65
2022/04/16 05:42:44;;;;;;;7.53;5.07;;;;;;;;;;4487980;28;37321;-66
2022/04/16 05:45:02;;;;;;;7.60;5.00;;;;;;;;;;4489741;28;21093;-65
2022/04/16 05:47:12;;;;;;;6.68;4.63;;;;;;;;;;4456205;28;20125;-65
2022/04/16 05:49:22;;;;;;;6.17;4.50;;;;;;;;;;4488607;28;20036;-66
2022/04/16 05:51:33;;;;;;;7.30;4.97;;;;;;;;;;4490264;28;20096;-65
2022/04/16 05:53:44;;;;;;;6.63;4.40;;;;;;;;;;4469051;28;31491;-66
2022/04/16 05:55:55;;;;;;;;;;;;;;;;;;4489214;28;20540;-65
2022/04/16 05:58:05;;;;;;;6.97;4.82;;;;;;;;;;4490485;28;19987;-66
2022/04/16 06:00:16;;;;;;;5.33;4.00;;;;;;;;;;4488426;28;20566;-66
2022/04/16 06:02:26;;;;;;;6.63;4.60;;;;;;;;;;4489081;28;20432;-66
2022/04/16 06:04:37;;;;;;;5.87;3.90;;;;;;;;;;4489697;28;20038;-66
2022/04/16 06:06:47;;;;;;;6.07;4.13;;;;;;;;;;4487576;28;28885;-67
2022/04/16 06:08:57;;;;;;;6.90;4.13;;;;;;;;;;4488012;28;20399;-66
2022/04/16 06:11:08;;;;;;;6.30;3.83;;;;;;;;;;4487974;28;20038;-66
2022/04/16 06:13:19;;;;;;;5.32;3.53;;;;;;;;;;4473210;28;20109;-66
2022/04/16 06:15:30;;;;;;;6.60;3.67;;;;;;;;;;4487968;28;20026;-66
2022/04/16 06:17:40;;;;;;;7.13;4.10;;;;;;;;;;4489091;28;20046;-66
2022/04/16 06:19:51;;;;;;;6.07;3.63;;;;;;;;;;4470684;28;20046;-66
2022/04/16 06:22:01;;;;;;;7.10;4.07;;;;;;;;;;4487548;28;20235;-66
2022/04/16 06:24:12;;;;;;;5.43;3.53;;;;;;;;;;4488656;28;20030;-66
2022/04/16 06:26:22;;;;;;;6.73;3.83;;;;;;;;;;4489530;28;21484;-65
2022/04/16 06:28:33;;;;;;;4.63;3.13;;;;;;;;;;4487561;28;20502;-66
2022/04/16 06:30:43;;;;;;;5.17;3.10;;;;;;;;;;4488899;28;20088;-66
2022/04/16 06:32:53;;;;;;;4.97;3.30;;;;;;;;;;4489007;28;32291;-66
2022/04/16 06:35:05;;;;;;;4.70;3.20;;;;;;;;;;4487635;28;25709;-66
2022/04/16 06:37:15;;;;;;;4.63;2.97;;;;;;;;;;4463436;28;20140;-66
2022/04/16 06:39:26;;;;;;;5.57;2.97;;;;;;;;;;4488877;28;20475;-66
2022/04/16 06:41:36;;;;;;;4.63;2.93;;;;;;;;;;4468821;28;28348;-66
2022/04/16 06:43:46;;;;;;;4.70;2.77;;;;;;;;;;4469258;28;20035;-66
2022/04/16 06:45:58;;;;;;;;;;;;;;;;;;4478619;28;20099;-66
2022/04/16 06:48:08;;;;;;;5.60;2.90;;;;;;;;;;4487962;28;24718;-66
2022/04/16 06:50:19;;;;;;;5.30;2.90;;;;;;;;;;4488704;28;20273;-66
2022/04/16 06:52:29;;;;;;;4.60;2.87;;;;;;;;;;4486715;28;20657;-65
2022/04/16 06:54:39;;;;;;;3.67;2.50;;;;;;;;;;4486617;28;20689;-65
2022/04/16 06:56:50;;;;;;;4.53;2.80;;;;;;;;;;4471972;28;27981;-66
2022/04/16 06:59:00;;;;;;;4.10;2.87;;;;;;;;;;4487723;28;20053;-66
2022/04/16 07:01:11;;;;;;;3.90;2.80;;;;;;;;;;4488391;28;20129;-66
2022/04/16 07:03:21;;;;;;;4.97;2.77;;;;;;;;;;4453148;28;20034;-66
2022/04/16 07:05:32;;;;;;;4.73;2.73;;;;;;;;;;4488629;28;20045;-66
2022/04/16 07:07:42;;;;;;;5.00;3.10;;;;;;;;;;4469566;28;20026;-66
2022/04/16 07:09:53;;;;;;;4.20;2.60;;;;;;;;;;4487439;28;44603;-66
2022/04/16 07:12:09;;;;;;;3.83;2.75;;;;;;;;;;4486384;28;20070;-65
2022/04/16 07:14:20;;;;;;;5.20;2.45;;;;;;;;;;4468333;28;20641;-66
2022/04/16 07:16:30;;;;;;;4.43;2.70;;;;;;;;;;4487841;28;20081;-66
2022/04/16 07:18:41;;;;;;;3.37;2.50;;;;;;;;;;4488306;28;20049;-65
2022/04/16 07:20:51;;;;;;;3.63;2.30;;;;;;;;;;4488181;28;20040;-66
2022/04/16 07:23:02;;;;;;;3.53;2.60;;;;;;;;;;4458851;28;20151;-66
2022/04/16 07:25:12;;;;;;;3.23;2.10;;;;;;;;;;4477109;28;20102;-66
2022/04/16 07:27:22;;;;;;;3.30;2.30;;;;;;;;;;4486941;28;20447;-66
2022/04/16 07:29:33;;;;;;;3.27;2.17;;;;;;;;;;4488176;28;20029;-66
2022/04/16 07:31:43;;;;;;;2.90;2.23;;;;;;;;;;4470387;28;20101;-67
2022/04/16 07:33:54;;;;;;;2.83;2.07;;;;;;;;;;4487418;28;20073;-66
2022/04/16 07:36:04;;;;;;;3.03;1.97;;;;;;;;;;4477294;28;38183;-66
2022/04/16 07:38:14;;;;;;;3.23;2.20;;;;;;;;;;4468854;28;26025;-66
2022/04/16 07:40:25;;;;;;;3.47;2.10;;;;;;;;;;4487235;28;20042;-66
2022/04/16 07:42:35;;;;;;;3.97;1.90;;;;;;;;;;4486538;28;20201;-67
2022/04/16 07:44:46;;;;;;;2.33;2.00;;;;;;;;;;4461098;28;20506;-66
2022/04/16 07:46:56;;;;;;;2.63;2.03;;;;;;;;;;4488300;28;20152;-66
2022/04/16 07:49:07;;;;;;;2.10;1.90;;;;;;;;;;4488783;28;20088;-66
2022/04/16 07:51:17;;;;;;;2.70;1.80;;;;;;;;;;4487396;28;20037;-66
2022/04/16 07:53:29;;;;;;;2.47;1.80;;;;;;;;;;4486287;28;21115;-66
2022/04/16 07:55:39;;;;;;;1.60;1.15;;;;;;;;;;4488153;28;20026;-66
2022/04/16 07:57:50;;;;;;;2.07;1.47;;;;;;;;;;4487781;28;20034;-66
2022/04/16 08:00:00;;;;;;;2.10;1.37;;;;;;;;;;4469354;28;20078;-66
2022/04/16 08:02:11;;;;;;;2.73;1.63;;;;;;;;;;4486586;28;20048;-65
2022/04/16 08:04:21;;;;;;;2.00;1.40;;;;;;;;;;4487511;28;20118;-66
2022/04/16 08:06:32;;;;;;;1.20;1.10;;;;;;;;;;4488745;28;20167;-66
2022/04/16 08:08:42;;;;;;;2.03;1.50;;;;;;;;;;4488504;28;20038;-66
2022/04/16 08:10:53;;;;;;;1.60;1.27;;;;;;;;;;4478300;28;20034;-65
2022/04/16 08:13:05;;;;;;;3.47;1.57;;;;;;;;;;4468832;28;20030;-65
2022/04/16 08:15:15;;;;;;;2.70;1.50;;;;;;;;;;4478822;28;20046;-65
2022/04/16 08:17:26;;;;;;;1.87;1.10;;;;;;;;;;4477647;28;20030;-65
2022/04/16 08:19:36;;;;;;;1.40;1.10;;;;;;;;;;4488625;28;20415;-66
2022/04/16 08:21:47;;;;;;;1.80;1.20;;;;;;;;;;4486196;28;20035;-64
2022/04/16 08:24:13;;;;;;;1.87;1.33;;;;;;;;;;4488452;28;20030;-65
2022/04/16 08:26:24;;;;;;;1.90;1.05;;;;;;;;;;4489239;28;20797;-65
2022/04/16 08:28:35;;;;;;;1.17;1.08;;;;;;;;;;4491288;28;20045;-66
2022/04/16 08:30:45;;;;;;;0.97;0.87;;;;;;;;;;4491343;28;20428;-64
2022/04/16 08:32:56;;;;;;;1.77;1.10;;;;;;;;;;4490503;28;20038;-64
2022/04/16 08:35:10;;;;;;;2.07;0.80;;;;;;;;;;4490061;28;20042;-65
2022/04/16 08:37:21;;;;;;;2.45;1.10;;;;;;;;;;4471008;28;20070;-65
2022/04/16 08:39:31;;;;;;;1.13;0.73;;;;;;;;;;4490020;28;20061;-64
2022/04/16 08:41:41;;;;;;;2.43;1.10;;;;;;;;;;4488583;28;33028;-64
2022/04/16 08:43:53;;;;;;;1.60;1.07;;;;;;;;;;4489982;28;33451;-65
2022/04/16 08:46:04;;;;;;;2.17;1.00;;;;;;;;;;4474877;28;20046;-64
2022/04/16 08:48:15;;;;;;;1.40;0.90;;;;;;;;;;4476950;28;20098;-65
2022/04/16 08:50:25;;;;;;;2.33;0.85;;;;;;;;;;4471481;28;20766;-65
2022/04/16 08:52:37;;;;;;;1.27;0.93;;;;;;;;;;4491049;28;20049;-65
2022/04/16 08:54:48;;;;;;;1.30;0.82;;;;;;;;;;4470990;28;20026;-64
2022/04/16 08:56:58;;;;;;;1.13;0.87;;;;;;;;;;4490100;28;29311;-65
2022/04/16 08:59:09;;;;;;;0.83;0.60;;;;;;;;;;4491315;28;20089;-64
2022/04/16 09:01:19;;;;;;;2.40;0.70;;;;;;;;;;4479953;28;20790;-65
2022/04/16 09:03:34;;;;;;;1.43;0.70;;;;;;;;;;4479828;28;20065;-65
2022/04/16 09:05:45;;;;;;;0.80;0.57;;;;;;;;;;4478068;28;20128;-66
2022/04/16 09:07:57;;;;;;;1.52;0.60;;;;;;;;;;4488742;28;20045;-65
2022/04/16 09:10:08;;;;;;;0.88;0.70;;;;;;;;;;4488142;28;20115;-65
2022/04/16 09:12:19;;;;;;;0.75;0.60;;;;;;;;;;4471235;28;20855;-65
2022/04/16 09:14:37;;;;;;;0.82;0.63;;;;;;;;;;4491424;28;20580;-65
2022/04/16 09:16:47;;;;;;;1.35;0.60;;;;;;;;;;4475075;28;20034;-65
2022/04/16 09:18:58;;;;;;;0.60;0.60;;;;;;;;;;4490638;28;20042;-65
2022/04/16 09:21:15;;;;;;;0.90;0.67;;;;;;;;;;4488999;28;22284;-65
2022/04/16 09:23:25;;;;;;;0.60;0.50;;;;;;;;;;4488937;28;20532;-66
2022/04/16 09:25:36;;;;;;;0.60;0.60;;;;;;;;;;4470388;28;20596;-65
2022/04/16 09:27:50;;;;;;;1.63;0.63;;;;;;;;;;4490247;28;20042;-65
2022/04/16 09:30:04;;;;;;;1.70;0.70;;;;;;;;;;4490291;28;20033;-65
2022/04/16 09:32:24;;;;;;;0.73;0.52;;;;;;;;;;4488803;28;20030;-65
2022/04/16 09:34:34;;;;;;;0.50;0.50;;;;;;;;;;4479948;28;20066;-65
2022/04/16 09:36:46;;;;;;;1.10;0.60;;;;;;;;;;4455217;28;20122;-65
2022/04/16 09:39:04;;;;;;;1.40;0.70;;;;;;;;;;4486137;28;20656;-65
2022/04/16 09:41:14;;;;;;;0.98;0.60;;;;;;;;;;4489568;28;20027;-65
2022/04/16 09:43:34;;;;;;;1.00;0.70;;;;;;;;;;4489426;28;20484;-65
2022/04/16 09:45:44;;;;;;;1.40;0.73;;;;;;;;;;4487919;28;20150;-65
2022/04/16 09:47:55;;;;;;;0.70;0.60;;;;;;;;;;4489744;28;20159;-65
2022/04/16 09:50:06;;;;;;;0.88;0.50;;;;;;;;;;4488919;28;20034;-65
2022/04/16 09:52:22;;;;;;;0.73;0.60;;;;;;;;;;4468831;28;20042;-65
2022/04/16 09:54:34;;;;;;;1.63;0.60;;;;;;;;;;4470914;28;20098;-65
2022/04/16 09:56:49;;;;;;;1.42;0.85;;;;;;;;;;4470706;28;20022;-65
2022/04/16 09:59:02;;;;;;;0.90;0.55;;;;;;;;;;4487678;28;20030;-65
2022/04/16 10:01:13;;;;;;;0.82;0.60;;;;;;;;;;4468424;28;20034;-64
2022/04/16 10:03:23;;;;;;;0.85;0.70;;;;;;;;;;4463357;28;20042;-64
2022/04/16 10:05:34;;;;;;;0.73;0.40;;;;;;;;;;4489996;28;21625;-65
2022/04/16 10:07:45;;;;;;;1.30;0.63;;;;;;;;;;4489420;28;20030;-65
2022/04/16 10:09:56;;;;;;;1.55;0.60;;;;;;;;;;4490457;28;20069;-64
2022/04/16 10:14:42;;;;;;;0.47;0.47;;;;;;;;;;4472022;28;20538;-64
2022/04/16 10:17:09;;;;;;;0.57;0.50;;;;;;;;;;4489794;28;20068;-63
2022/04/16 10:19:20;;;;;;;0.85;0.73;;;;;;;;;;4473350;28;20656;-63
2022/04/16 10:21:34;;;;;;;0.60;0.50;;;;;;;;;;4489209;28;33688;-63
2022/04/16 10:23:45;;;;;;;0.95;0.45;;;;;;;;;;4479693;28;20035;-63
2022/04/16 10:26:04;;;;;;;0.68;0.50;;;;;;;;;;4456095;28;21152;-63
2022/04/16 10:28:23;;;;;;;0.85;0.50;;;;;;;;;;4489138;28;20038;-63
2022/04/16 10:30:37;;;;;;;0.50;0.50;;;;;;;;;;4488239;28;20042;-64
2022/04/16 10:32:48;;;;;;;0.60;0.40;;;;;;;;;;4486219;28;20034;-63
2022/04/16 10:35:04;;;;;;;0.60;0.50;;;;;;;;;;4488757;28;20612;-63
2022/04/16 10:37:22;;;;;;;1.25;0.65;;;;;;;;;;4489649;28;20049;-64
2022/04/16 10:39:35;;;;;;;0.40;0.40;;;;;;;;;;4468654;28;20034;-63
2022/04/16 10:42:11;;;;;;;0.65;0.47;;;;;;;;;;4489470;28;20038;-63
2022/04/16 10:44:23;;;;;;;0.50;0.30;;;;;;;;;;4486816;28;20053;-63
2022/04/16 10:46:44;;;;;;;0.35;0.30;;;;;;;;;;4487773;28;20565;-63
2022/04/16 10:48:55;;;;;;;0.40;0.40;;;;;;;;;;4478838;28;21159;-63
2022/04/16 10:51:06;;;;;;;0.60;0.40;;;;;;;;;;4487732;28;20042;-63
2022/04/16 10:53:27;;;;;;;1.27;0.50;;;;;;;;;;4488018;28;20061;-64
2022/04/16 10:55:47;;;;;;;0.40;0.40;;;;;;;;;;4472413;28;20114;-64
2022/04/16 10:57:59;;;;;;;0.93;0.40;;;;;;;;;;4490490;28;20693;-64
2022/04/16 11:00:12;;;;;;;;;;;;;;;;;;4454312;28;20050;-66
2022/04/16 11:02:25;;;;;;;0.40;0.35;;;;;;;;;;4446867;28;19925;-63
2022/04/16 11:04:37;;;;;;;0.40;0.40;;;;;;;;;;4471955;28;20582;-64
2022/04/16 11:06:51;;;;;;;0.77;0.40;;;;;;;;;;4488650;28;20029;-64
2022/04/16 11:09:02;;;;;;;1.20;0.50;;;;;;;;;;4480693;28;20144;-65
2022/04/16 11:11:13;;;;;;;0.50;0.40;;;;;;;;;;4487842;28;20018;-64
2022/04/16 11:13:31;;;;;;;0.52;0.43;;;;;;;;;;4479148;28;20035;-65
2022/04/16 11:15:42;;;;;;;0.30;0.30;;;;;;;;;;4489313;28;20058;-65
2022/04/16 11:17:56;;;;;;;1.50;0.40;;;;;;;;;;4488231;28;21228;-65
2022/04/16 11:20:07;;;;;;;0.52;0.50;;;;;;;;;;4488684;28;20616;-65
2022/04/16 11:22:17;;;;;;;0.47;0.30;;;;;;;;;;4487944;28;20034;-65
2022/04/16 11:24:28;;;;;;;0.63;0.40;;;;;;;;;;4474969;28;20090;-65
2022/04/16 11:34:17;;;;;;;0.38;0.38;;;;;;;;;;4488147;28;20125;-64
2022/04/16 11:36:27;;;;;;;1.33;0.40;;;;;;;;;;4479123;28;21136;-64
2022/04/16 11:38:39;;;;;;;0.63;0.40;;;;;;;;;;4487329;28;30192;-65
2022/04/16 11:40:52;;;;;;;0.63;0.30;;;;;;;;;;4468920;28;20031;-65
2022/04/16 11:43:05;;;;;;;0.73;0.45;;;;;;;;;;4487474;28;20950;-64
2022/04/16 11:45:16;;;;;;;0.45;0.40;;;;;;;;;;4486391;28;20606;-65
2022/04/16 11:47:28;;;;;;;0.73;0.40;;;;;;;;;;4475177;28;20054;-64
2022/04/16 11:50:00;;;;;;;1.38;0.68;;;;;;;;;;4479705;28;20034;-65
2022/04/16 11:52:11;;;;;;;0.55;0.40;;;;;;;;;;4470892;28;20033;-65
2022/04/16 11:54:29;;;;;;;0.87;0.40;;;;;;;;;;4471851;28;20033;-64
2022/04/16 11:56:49;;;;;;;1.00;0.40;;;;;;;;;;4468371;28;20644;-64
2022/04/16 11:59:00;;;;;;;1.80;0.63;;;;;;;;;;4468317;28;20760;-64
2022/04/16 12:01:11;;;;;;;1.60;0.50;;;;;;;;;;4486089;28;20574;-64
2022/04/16 12:03:22;;;;;;;0.90;0.60;;;;;;;;;;4489236;28;20031;-64
2022/04/16 12:05:33;;;;;;;0.95;0.52;;;;;;;;;;4487494;28;20295;-64
2022/04/16 12:07:46;;;;;;;1.10;0.50;;;;;;;;;;4488094;28;20038;-64
2022/04/16 12:09:56;;;;;;;1.67;0.47;;;;;;;;;;4488367;28;20026;-64
2022/04/16 12:12:06;;;;;;;1.07;0.40;;;;;;;;;;4478280;28;32254;-65
2022/04/16 12:14:17;;;;;;;0.53;0.50;;;;;;;;;;4487147;28;20032;-64
2022/04/16 12:16:35;;;;;;;0.53;0.40;;;;;;;;;;4487931;28;20030;-64
2022/04/16 12:18:49;;;;;;;0.70;0.47;;;;;;;;;;4486581;28;20074;-64
2022/04/16 12:21:07;;;;;;;1.40;0.52;;;;;;;;;;4472524;28;20518;-66
2022/04/16 12:23:24;;;;;;;1.73;0.60;;;;;;;;;;4454997;28;20206;-64
2022/04/16 12:25:35;;;;;;;0.55;0.43;;;;;;;;;;4486579;28;20022;-65
2022/04/16 12:27:52;;;;;;;0.47;0.43;;;;;;;;;;4487064;28;20041;-65
2022/04/16 12:30:03;;;;;;;0.95;0.50;;;;;;;;;;4486845;28;20497;-64
2022/04/16 12:32:24;;;;;;;1.10;0.50;;;;;;;;;;4486569;28;20568;-65
2022/04/16 12:34:35;;;;;;;0.82;0.30;;;;;;;;;;4487694;28;20034;-64
2022/04/16 12:36:45;;;;;;;0.73;0.60;;;;;;;;;;4488384;28;20030;-65
2022/04/16 12:38:55;;;;;;;0.80;0.40;;;;;;;;;;4488631;28;20049;-65
2022/04/16 12:41:09;;;;;;;0.73;0.57;;;;;;;;;;4470116;28;20049;-64
2022/04/16 12:43:20;;;;;;;1.00;0.40;;;;;;;;;;4488245;28;21062;-64
2022/04/16 12:45:30;;;;;;;0.47;0.37;;;;;;;;;;4472741;28;20019;-64
2022/04/16 12:47:40;;;;;;;0.77;0.53;;;;;;;;;;4487269;28;20475;-65
2022/04/16 12:49:51;;;;;;;1.00;0.40;;;;;;;;;;4468915;28;20043;-64
2022/04/16 12:52:01;;;;;;;1.50;0.50;;;;;;;;;;4485695;28;20094;-65
2022/04/16 12:54:12;;;;;;;1.40;0.63;;;;;;;;;;4461938;28;20123;-65
2022/04/16 12:56:22;;;;;;;0.40;0.40;;;;;;;;;;4487689;28;20033;-64
2022/04/16 12:58:33;;;;;;;1.13;0.50;;;;;;;;;;4469509;28;20429;-64
2022/04/16 13:00:47;;;;;;;0.40;0.40;;;;;;;;;;4486463;28;20038;-65
2022/04/16 13:02:59;;;;;;;1.08;0.43;;;;;;;;;;4469906;28;20558;-65
2022/04/16 13:05:14;;;;;;;0.95;0.50;;;;;;;;;;4454864;28;20050;-65
2022/04/16 13:07:24;;;;;;;0.57;0.45;;;;;;;;;;4487223;28;20929;-65
2022/04/16 13:09:35;;;;;;;0.37;0.37;;;;;;;;;;4487428;28;20066;-64
2022/04/16 13:11:46;;;;;;;0.90;0.70;;;;;;;;;;4487072;28;20053;-64
2022/04/16 13:13:56;;;;;;;0.50;0.50;;;;;;;;;;4491006;28;20772;-64
2022/04/16 13:16:07;;;;;;;1.23;0.50;;;;;;;;;;4490928;28;20272;-64
2022/04/16 13:18:17;;;;;;;0.73;0.40;;;;;;;;;;4488501;28;20631;-64
2022/04/16 13:20:27;;;;;;;0.77;0.57;;;;;;;;;;4488849;28;23097;-65
2022/04/16 13:22:39;;;;;;;0.40;0.40;;;;;;;;;;4490500;28;20554;-64
2022/04/16 13:24:49;;;;;;;0.32;0.30;;;;;;;;;;4472644;28;20033;-64
2022/04/16 13:26:59;;;;;;;1.07;0.60;;;;;;;;;;4478052;28;20524;-64
2022/04/16 13:29:10;;;;;;;1.80;1.07;;;;;;;;;;4488068;28;42575;-64
2022/04/16 13:31:21;;;;;;;0.98;0.82;;;;;;;;;;4489220;28;20090;-64
2022/04/16 13:33:32;;;;;;;0.82;0.52;;;;;;;;;;4479991;28;20038;-64
2022/04/16 13:35:42;;;;;;;0.57;0.40;;;;;;;;;;4479385;28;34821;-64